sensor_id;sensor_type;location;lat;lon;timestamp;pressure;altitude;pressure_sealevel;temperature;humidity
71791;BME280;59638;52.126;5.434;2024-01-15T00:01:57;100367.69;;;0.43;100.00
71791;BME280;59638;52.126;5.434;2024-01-15T00:04:23;100363.66;;;0.37;100.00
71791;BME280;59638;52.126;5.434;2024-01-15T00:06:50;100359.47;;;0.35;100.00
71791;BME280;59638;52.126;5.434;2024-01-15T00:09:17;100363.75;;;0.36;100.00
71791;BME280;59638;52.126;5.434;2024-01-15T00:11:43;100355.97;;;0.36;100.00
71791;BME280;59638;52.126;5.434;2024-01-15T00:14:10;100351.94;;;0.30;100.00
71791;BME280;59638;52.126;5.434;2024-01-15T00:16:36;100346.94;;;0.27;100.00
71791;BME280;59638;52.126;5.434;2024-01-15T00:19:03;100342.72;;;0.24;100.00
71791;BME280;59638;52.126;5.434;2024-01-15T00:21:29;100349.53;;;0.27;100.00
71791;BME280;59638;52.126;5.434;2024-01-15T00:23:56;100345.31;;;0.24;100.00
71791;BME280;59638;52.126;5.434;2024-01-15T00:26:22;100343.84;;;0.20;100.00
71791;BME280;59638;52.126;5.434;2024-01-15T00:28:49;100335.28;;;0.18;100.00
71791;BME280;59638;52.126;5.434;2024-01-15T00:31:18;100338.69;;;0.19;100.00
71791;BME280;59638;52.126;5.434;2024-01-15T00:33:45;100331.00;;;0.17;100.00
71791;BME280;59638;52.126;5.434;2024-01-15T00:36:12;100328.84;;;0.10;100.00
71791;BME280;59638;52.126;5.434;2024-01-15T00:38:38;100325.75;;;0.03;100.00
71791;BME280;59638;52.126;5.434;2024-01-15T00:41:05;100324.22;;;-0.01;100.00
71791;BME280;59638;52.126;5.434;2024-01-15T00:43:31;100312.25;;;-0.04;100.00
71791;BME280;59638;52.126;5.434;2024-01-15T00:45:58;100315.69;;;-0.03;100.00
71791;BME280;59638;52.126;5.434;2024-01-15T00:48:24;100314.84;;;-0.04;100.00
71791;BME280;59638;52.126;5.434;2024-01-15T00:50:51;100305.31;;;-0.03;100.00
71791;BME280;59638;52.126;5.434;2024-01-15T00:53:17;100306.38;;;-0.07;100.00
71791;BME280;59638;52.126;5.434;2024-01-15T00:55:44;100301.38;;;-0.10;100.00
71791;BME280;59638;52.126;5.434;2024-01-15T00:58:10;100314.50;;;-0.13;100.00
71791;BME280;59638;52.126;5.434;2024-01-15T01:00:37;100300.88;;;-0.17;100.00
71791;BME280;59638;52.126;5.434;2024-01-15T01:03:03;100303.56;;;-0.18;100.00
71791;BME280;59638;52.126;5.434;2024-01-15T01:05:30;100307.91;;;-0.19;100.00
71791;BME280;59638;52.126;5.434;2024-01-15T01:07:56;100303.72;;;-0.21;100.00
71791;BME280;59638;52.126;5.434;2024-01-15T01:10:23;100302.97;;;-0.23;100.00
71791;BME280;59638;52.126;5.434;2024-01-15T01:12:49;100297.09;;;-0.27;100.00
71791;BME280;59638;52.126;5.434;2024-01-15T01:15:16;100299.88;;;-0.30;100.00
71791;BME280;59638;52.126;5.434;2024-01-15T01:17:43;100292.91;;;-0.30;100.00
71791;BME280;59638;52.126;5.434;2024-01-15T01:20:10;100282.78;;;-0.34;100.00
71791;BME280;59638;52.126;5.434;2024-01-15T01:22:39;100287.31;;;-0.38;100.00
71791;BME280;59638;52.126;5.434;2024-01-15T01:25:05;100285.63;;;-0.39;100.00
71791;BME280;59638;52.126;5.434;2024-01-15T01:27:32;100294.16;;;-0.37;100.00
71791;BME280;59638;52.126;5.434;2024-01-15T01:29:59;100294.00;;;-0.34;100.00
71791;BME280;59638;52.126;5.434;2024-01-15T01:32:25;100294.91;;;-0.35;100.00
71791;BME280;59638;52.126;5.434;2024-01-15T01:34:52;100299.50;;;-0.40;100.00
71791;BME280;59638;52.126;5.434;2024-01-15T01:37:18;100299.50;;;-0.40;100.00
71791;BME280;59638;52.126;5.434;2024-01-15T01:39:45;100301.66;;;-0.48;100.00
71791;BME280;59638;52.126;5.434;2024-01-15T01:42:12;100305.34;;;-0.52;100.00
71791;BME280;59638;52.126;5.434;2024-01-15T01:44:38;100308.84;;;-0.53;100.00
71791;BME280;59638;52.126;5.434;2024-01-15T01:47:05;100293.28;;;-0.53;100.00
71791;BME280;59638;52.126;5.434;2024-01-15T01:49:32;100295.00;;;-0.52;100.00
71791;BME280;59638;52.126;5.434;2024-01-15T01:52:01;100292.97;;;-0.47;100.00
71791;BME280;59638;52.126;5.434;2024-01-15T01:54:30;100292.72;;;-0.42;100.00
71791;BME280;59638;52.126;5.434;2024-01-15T01:56:57;100289.31;;;-0.43;100.00
71791;BME280;59638;52.126;5.434;2024-01-15T01:59:27;100282.44;;;-0.44;100.00
71791;BME280;59638;52.126;5.434;2024-01-15T02:01:55;100288.97;;;-0.37;100.00
71791;BME280;59638;52.126;5.434;2024-01-15T02:04:25;100295.41;;;-0.28;100.00
71791;BME280;59638;52.126;5.434;2024-01-15T02:06:52;100292.84;;;-0.12;100.00
71791;BME280;59638;52.126;5.434;2024-01-15T02:09:18;100282.72;;;-0.01;100.00
71791;BME280;59638;52.126;5.434;2024-01-15T02:11:48;100305.47;;;0.25;100.00
71791;BME280;59638;52.126;5.434;2024-01-15T02:14:15;100309.47;;;0.47;100.00
71791;BME280;59638;52.126;5.434;2024-01-15T02:16:42;100321.63;;;0.76;100.00
71791;BME280;59638;52.126;5.434;2024-01-15T02:19:17;100321.84;;;0.88;100.00
71791;BME280;59638;52.126;5.434;2024-01-15T02:21:44;100299.56;;;0.84;100.00
71791;BME280;59638;52.126;5.434;2024-01-15T02:24:11;100304.94;;;0.80;100.00
71791;BME280;59638;52.126;5.434;2024-01-15T02:26:38;100312.06;;;0.77;100.00
71791;BME280;59638;52.126;5.434;2024-01-15T02:29:05;100293.25;;;0.73;100.00
71791;BME280;59638;52.126;5.434;2024-01-15T02:31:33;100296.94;;;0.69;100.00
71791;BME280;59638;52.126;5.434;2024-01-15T02:33:59;100304.91;;;0.66;100.00
71791;BME280;59638;52.126;5.434;2024-01-15T02:36:26;100294.22;;;0.71;100.00
71791;BME280;59638;52.126;5.434;2024-01-15T02:38:52;100300.44;;;0.68;100.00
71791;BME280;59638;52.126;5.434;2024-01-15T02:41:19;100296.63;;;0.60;100.00
71791;BME280;59638;52.126;5.434;2024-01-15T02:43:45;100289.94;;;0.56;100.00
71791;BME280;59638;52.126;5.434;2024-01-15T02:46:12;100290.03;;;0.54;100.00
71791;BME280;59638;52.126;5.434;2024-01-15T02:48:38;100282.03;;;0.57;100.00
71791;BME280;59638;52.126;5.434;2024-01-15T02:51:05;100281.88;;;0.60;100.00
71791;BME280;59638;52.126;5.434;2024-01-15T02:53:31;100281.53;;;0.66;100.00
71791;BME280;59638;52.126;5.434;2024-01-15T02:55:58;100281.53;;;0.66;100.00
71791;BME280;59638;52.126;5.434;2024-01-15T02:58:24;100275.66;;;0.63;100.00
71791;BME280;59638;52.126;5.434;2024-01-15T03:00:51;100276.69;;;0.60;100.00
71791;BME280;59638;52.126;5.434;2024-01-15T03:03:17;100277.19;;;0.67;100.00
71791;BME280;59638;52.126;5.434;2024-01-15T03:05:44;100274.47;;;0.68;100.00
71791;BME280;59638;52.126;5.434;2024-01-15T03:08:10;100280.03;;;0.62;100.00
71791;BME280;59638;52.126;5.434;2024-01-15T03:10:37;100275.00;;;0.59;100.00
71791;BME280;59638;52.126;5.434;2024-01-15T03:13:03;100271.50;;;0.60;100.00
71791;BME280;59638;52.126;5.434;2024-01-15T03:15:30;100273.81;;;0.65;100.00
71791;BME280;59638;52.126;5.434;2024-01-15T03:17:56;100281.59;;;0.65;100.00
71791;BME280;59638;52.126;5.434;2024-01-15T03:20:23;100273.16;;;0.61;100.00
71791;BME280;59638;52.126;5.434;2024-01-15T03:22:49;100274.34;;;0.56;100.00
71791;BME280;59638;52.126;5.434;2024-01-15T03:25:16;100274.59;;;0.51;100.00
71791;BME280;59638;52.126;5.434;2024-01-15T03:27:42;100274.88;;;0.46;100.00
71791;BME280;59638;52.126;5.434;2024-01-15T03:30:09;100271.81;;;0.40;100.00
71791;BME280;59638;52.126;5.434;2024-01-15T03:32:36;100272.88;;;0.36;100.00
71791;BME280;59638;52.126;5.434;2024-01-15T03:35:03;100279.09;;;0.33;100.00
71791;BME280;59638;52.126;5.434;2024-01-15T03:37:30;100294.00;;;0.30;100.00
71791;BME280;59638;52.126;5.434;2024-01-15T03:39:56;100287.28;;;0.25;100.00
71791;BME280;59638;52.126;5.434;2024-01-15T03:42:23;100298.50;;;0.26;100.00
71791;BME280;59638;52.126;5.434;2024-01-15T03:44:49;100305.91;;;0.34;100.00
71791;BME280;59638;52.126;5.434;2024-01-15T03:47:16;100302.97;;;0.40;100.00
71791;BME280;59638;52.126;5.434;2024-01-15T03:49:42;100293.13;;;0.45;100.00
71791;BME280;59638;52.126;5.434;2024-01-15T03:52:09;100284.25;;;0.49;100.00
71791;BME280;59638;52.126;5.434;2024-01-15T03:54:35;100275.53;;;0.50;100.00
71791;BME280;59638;52.126;5.434;2024-01-15T03:57:02;100265.16;;;0.50;100.00
71791;BME280;59638;52.126;5.434;2024-01-15T03:59:29;100256.78;;;0.45;100.00
71791;BME280;59638;52.126;5.434;2024-01-15T04:01:55;100254.63;;;0.37;100.00
71791;BME280;59638;52.126;5.434;2024-01-15T04:04:22;100249.28;;;0.24;100.00
71791;BME280;59638;52.126;5.434;2024-01-15T04:06:48;100249.81;;;0.15;100.00
71791;BME280;59638;52.126;5.434;2024-01-15T04:09:15;100240.84;;;0.05;100.00
71791;BME280;59638;52.126;5.434;2024-01-15T04:11:42;100242.13;;;-0.02;100.00
71791;BME280;59638;52.126;5.434;2024-01-15T04:14:08;100241.63;;;-0.09;100.00
71791;BME280;59638;52.126;5.434;2024-01-15T04:16:35;100230.59;;;-0.12;100.00
71791;BME280;59638;52.126;5.434;2024-01-15T04:19:03;100237.59;;;-0.14;100.00
71791;BME280;59638;52.126;5.434;2024-01-15T04:21:30;100239.47;;;-0.16;100.00
71791;BME280;59638;52.126;5.434;2024-01-15T04:23:56;100235.94;;;-0.15;100.00
71791;BME280;59638;52.126;5.434;2024-01-15T04:26:22;100235.09;;;-0.16;100.00
71791;BME280;59638;52.126;5.434;2024-01-15T04:28:49;100232.59;;;-0.17;100.00
71791;BME280;59638;52.126;5.434;2024-01-15T04:31:25;100225.91;;;-0.21;100.00
71791;BME280;59638;52.126;5.434;2024-01-15T04:33:53;100221.53;;;-0.21;100.00
71791;BME280;59638;52.126;5.434;2024-01-15T04:36:20;100224.22;;;-0.22;100.00
71791;BME280;59638;52.126;5.434;2024-01-15T04:38:47;100223.22;;;-0.20;100.00
71791;BME280;59638;52.126;5.434;2024-01-15T04:41:14;100212.78;;;-0.18;100.00
71791;BME280;59638;52.126;5.434;2024-01-15T04:43:42;100213.53;;;-0.16;100.00
71791;BME280;59638;52.126;5.434;2024-01-15T04:46:08;100213.53;;;-0.16;100.00
71791;BME280;59638;52.126;5.434;2024-01-15T04:48:35;100200.56;;;-0.16;100.00
71791;BME280;59638;52.126;5.434;2024-01-15T04:51:04;100204.16;;;-0.19;100.00
71791;BME280;59638;52.126;5.434;2024-01-15T04:53:30;100198.28;;;-0.22;100.00
71791;BME280;59638;52.126;5.434;2024-01-15T04:55:57;100205.97;;;-0.21;100.00
71791;BME280;59638;52.126;5.434;2024-01-15T04:58:23;100211.66;;;-0.14;100.00
71791;BME280;59638;52.126;5.434;2024-01-15T05:00:53;100219.69;;;-0.03;100.00
71791;BME280;59638;52.126;5.434;2024-01-15T05:03:21;100217.50;;;0.05;100.00
71791;BME280;59638;52.126;5.434;2024-01-15T05:05:47;100205.94;;;0.11;100.00
71791;BME280;59638;52.126;5.434;2024-01-15T05:08:14;100204.78;;;0.16;100.00
71791;BME280;59638;52.126;5.434;2024-01-15T05:10:40;100198.75;;;0.16;100.00
71791;BME280;59638;52.126;5.434;2024-01-15T05:13:07;100206.63;;;0.14;100.00
71791;BME280;59638;52.126;5.434;2024-01-15T05:15:33;100204.38;;;0.08;100.00
71791;BME280;59638;52.126;5.434;2024-01-15T05:18:00;100199.84;;;0.12;100.00
71791;BME280;59638;52.126;5.434;2024-01-15T05:20:26;100193.56;;;0.16;100.00
71791;BME280;59638;52.126;5.434;2024-01-15T05:22:53;100181.41;;;0.16;100.00
71791;BME280;59638;52.126;5.434;2024-01-15T05:25:19;100194.03;;;0.22;100.00
71791;BME280;59638;52.126;5.434;2024-01-15T05:27:49;100192.19;;;0.24;100.00
71791;BME280;59638;52.126;5.434;2024-01-15T05:30:15;100183.41;;;0.27;100.00
71791;BME280;59638;52.126;5.434;2024-01-15T05:32:43;100200.75;;;0.26;100.00
71791;BME280;59638;52.126;5.434;2024-01-15T05:35:09;100194.03;;;0.22;100.00
71791;BME280;59638;52.126;5.434;2024-01-15T05:37:35;100197.38;;;0.24;100.00
71791;BME280;59638;52.126;5.434;2024-01-15T05:40:02;100192.84;;;0.28;100.00
71791;BME280;59638;52.126;5.434;2024-01-15T05:42:31;100204.06;;;0.29;100.00
71791;BME280;59638;52.126;5.434;2024-01-15T05:44:58;100199.63;;;0.31;100.00
71791;BME280;59638;52.126;5.434;2024-01-15T05:47:26;100202.22;;;0.31;100.00
71791;BME280;59638;52.126;5.434;2024-01-15T05:49:52;100201.38;;;0.30;100.00
71791;BME280;59638;52.126;5.434;2024-01-15T05:52:19;100203.88;;;0.32;100.00
71791;BME280;59638;52.126;5.434;2024-01-15T05:54:47;100202.97;;;0.33;100.00
71791;BME280;59638;52.126;5.434;2024-01-15T05:57:14;100203.88;;;0.32;100.00
71791;BME280;59638;52.126;5.434;2024-01-15T05:59:41;100214.94;;;0.35;100.00
71791;BME280;59638;52.126;5.434;2024-01-15T06:02:07;100217.44;;;0.37;100.00
71791;BME280;59638;52.126;5.434;2024-01-15T06:04:34;100215.59;;;0.39;100.00
71791;BME280;59638;52.126;5.434;2024-01-15T06:07:00;100212.81;;;0.42;100.00
71791;BME280;59638;52.126;5.434;2024-01-15T06:09:27;100212.09;;;0.40;100.00
71791;BME280;59638;52.126;5.434;2024-01-15T06:11:55;100218.38;;;0.36;100.00
71791;BME280;59638;52.126;5.434;2024-01-15T06:14:21;100221.22;;;0.31;100.00
71791;BME280;59638;52.126;5.434;2024-01-15T06:16:48;100205.94;;;0.26;100.00
71791;BME280;59638;52.126;5.434;2024-01-15T06:19:15;100201.25;;;0.17;100.00
71791;BME280;59638;52.126;5.434;2024-01-15T06:21:42;100200.84;;;0.09;100.00
71791;BME280;59638;52.126;5.434;2024-01-15T06:24:08;100194.16;;;0.05;100.00
71791;BME280;59638;52.126;5.434;2024-01-15T06:26:36;100203.06;;;0.01;100.00
71791;BME280;59638;52.126;5.434;2024-01-15T06:29:02;100197.88;;;0.01;100.00
71791;BME280;59638;52.126;5.434;2024-01-15T06:31:29;100198.94;;;-0.03;100.00
71791;BME280;59638;52.126;5.434;2024-01-15T06:33:56;100195.44;;;-0.02;100.00
71791;BME280;59638;52.126;5.434;2024-01-15T06:36:22;100199.78;;;-0.03;100.00
71791;BME280;59638;52.126;5.434;2024-01-15T06:38:49;100192.81;;;-0.02;100.00
71791;BME280;59638;52.126;5.434;2024-01-15T06:41:15;100185.03;;;-0.02;100.00
71791;BME280;59638;52.126;5.434;2024-01-15T06:43:42;100192.81;;;-0.02;100.00
71791;BME280;59638;52.126;5.434;2024-01-15T06:46:08;100185.03;;;-0.02;100.00
71791;BME280;59638;52.126;5.434;2024-01-15T06:48:35;100190.31;;;-0.04;100.00
71791;BME280;59638;52.126;5.434;2024-01-15T06:51:02;100195.59;;;-0.05;100.00
71791;BME280;59638;52.126;5.434;2024-01-15T06:53:29;100183.72;;;-0.09;100.00
71791;BME280;59638;52.126;5.434;2024-01-15T06:55:55;100185.56;;;-0.11;100.00
71791;BME280;59638;52.126;5.434;2024-01-15T06:58:22;100175.34;;;-0.14;100.00
71791;BME280;59638;52.126;5.434;2024-01-15T07:00:48;100173.78;;;-0.17;100.00
71791;BME280;59638;52.126;5.434;2024-01-15T07:03:15;100179.06;;;-0.18;100.00
71791;BME280;59638;52.126;5.434;2024-01-15T07:05:41;100172.03;;;-0.16;100.00
71791;BME280;59638;52.126;5.434;2024-01-15T07:08:08;100177.94;;;-0.14;100.00
71791;BME280;59638;52.126;5.434;2024-01-15T07:10:34;100172.69;;;-0.13;100.00
71791;BME280;59638;52.126;5.434;2024-01-15T07:13:03;100172.50;;;-0.10;100.00
71791;BME280;59638;52.126;5.434;2024-01-15T07:15:31;100176.69;;;-0.07;100.00
71791;BME280;59638;52.126;5.434;2024-01-15T07:17:57;100179.84;;;-0.02;100.00
71791;BME280;59638;52.126;5.434;2024-01-15T07:20:24;100198.78;;;0.00;100.00
71791;BME280;59638;52.126;5.434;2024-01-15T07:22:50;100215.25;;;-0.01;100.00
71791;BME280;59638;52.126;5.434;2024-01-15T07:25:17;100231.75;;;-0.02;100.00
71791;BME280;59638;52.126;5.434;2024-01-15T07:27:43;100215.34;;;-0.03;100.00
71791;BME280;59638;52.126;5.434;2024-01-15T07:30:11;100209.50;;;-0.06;100.00
71791;BME280;59638;52.126;5.434;2024-01-15T07:32:39;100193.94;;;-0.06;100.00
71791;BME280;59638;52.126;5.434;2024-01-15T07:35:07;100198.34;;;-0.08;100.00
71791;BME280;59638;52.126;5.434;2024-01-15T07:37:33;100194.09;;;-0.09;100.00
71791;BME280;59638;52.126;5.434;2024-01-15T07:40:00;100194.84;;;-0.07;100.00
71791;BME280;59638;52.126;5.434;2024-01-15T07:42:27;100187.97;;;-0.08;100.00
71791;BME280;59638;52.126;5.434;2024-01-15T07:44:53;100192.09;;;-0.04;100.00
71791;BME280;59638;52.126;5.434;2024-01-15T07:47:20;100186.91;;;-0.04;100.00
71791;BME280;59638;52.126;5.434;2024-01-15T07:49:46;100204.97;;;-0.03;100.00
71791;BME280;59638;52.126;5.434;2024-01-15T07:52:13;100216.19;;;-0.02;100.00
71791;BME280;59638;52.126;5.434;2024-01-15T07:54:40;100218.78;;;-0.02;100.00
71791;BME280;59638;52.126;5.434;2024-01-15T07:57:07;100207.31;;;0.02;100.00
71791;BME280;59638;52.126;5.434;2024-01-15T07:59:34;100210.00;;;0.01;100.00
71791;BME280;59638;52.126;5.434;2024-01-15T08:02:01;100210.84;;;0.01;100.00
71791;BME280;59638;52.126;5.434;2024-01-15T08:04:28;100208.97;;;0.03;100.00
71791;BME280;59638;52.126;5.434;2024-01-15T08:06:54;100208.78;;;0.06;100.00
71791;BME280;59638;52.126;5.434;2024-01-15T08:09:21;100201.78;;;0.08;100.00
71791;BME280;59638;52.126;5.434;2024-01-15T08:11:48;100199.19;;;0.08;100.00
71791;BME280;59638;52.126;5.434;2024-01-15T08:14:17;100190.81;;;0.03;100.00
71791;BME280;59638;52.126;5.434;2024-01-15T08:16:44;100191.06;;;-0.02;100.00
71791;BME280;59638;52.126;5.434;2024-01-15T08:19:11;100184.31;;;-0.04;100.00
71791;BME280;59638;52.126;5.434;2024-01-15T08:21:37;100187.06;;;-0.07;100.00
71791;BME280;59638;52.126;5.434;2024-01-15T08:24:05;100190.66;;;-0.10;100.00
71791;BME280;59638;52.126;5.434;2024-01-15T08:26:31;100208.00;;;-0.10;100.00
71791;BME280;59638;52.126;5.434;2024-01-15T08:28:58;100195.75;;;-0.08;100.00
71791;BME280;59638;52.126;5.434;2024-01-15T08:31:25;100197.28;;;-0.04;100.00
71791;BME280;59638;52.126;5.434;2024-01-15T08:33:52;100211.00;;;-0.02;100.00
71791;BME280;59638;52.126;5.434;2024-01-15T08:36:19;100220.28;;;0.02;100.00
71791;BME280;59638;52.126;5.434;2024-01-15T08:38:45;100202.13;;;0.02;100.00
71791;BME280;59638;52.126;5.434;2024-01-15T08:41:12;100200.47;;;0.01;100.00
71791;BME280;59638;52.126;5.434;2024-01-15T08:43:39;100198.59;;;0.03;100.00
71791;BME280;59638;52.126;5.434;2024-01-15T08:46:05;100193.31;;;0.05;100.00
71791;BME280;59638;52.126;5.434;2024-01-15T08:48:32;100197.34;;;0.10;100.00
71791;BME280;59638;52.126;5.434;2024-01-15T08:50:59;100195.91;;;0.20;100.00
71791;BME280;59638;52.126;5.434;2024-01-15T08:53:25;100190.66;;;0.36;100.00
71791;BME280;59638;52.126;5.434;2024-01-15T08:55:52;100203.03;;;0.47;100.00
71791;BME280;59638;52.126;5.434;2024-01-15T08:58:18;100194.09;;;0.51;100.00
71791;BME280;59638;52.126;5.434;2024-01-15T09:00:45;100204.50;;;0.51;100.00
71791;BME280;59638;52.126;5.434;2024-01-15T09:03:11;100207.00;;;0.52;100.00
71791;BME280;59638;52.126;5.434;2024-01-15T09:05:38;100205.41;;;0.50;100.00
71791;BME280;59638;52.126;5.434;2024-01-15T09:08:05;100210.88;;;0.45;100.00
71791;BME280;59638;52.126;5.434;2024-01-15T09:10:31;100204.69;;;0.48;100.00
71791;BME280;59638;52.126;5.434;2024-01-15T09:12:59;100222.22;;;0.59;100.00
71791;BME280;59638;52.126;5.434;2024-01-15T09:15:26;100238.47;;;0.62;100.00
71791;BME280;59638;52.126;5.434;2024-01-15T09:17:54;100232.69;;;0.57;100.00
71791;BME280;59638;52.126;5.434;2024-01-15T09:20:20;100216.53;;;0.52;100.00
71791;BME280;59638;52.126;5.434;2024-01-15T09:22:47;100210.72;;;0.48;100.00
71791;BME280;59638;52.126;5.434;2024-01-15T09:25:13;100203.03;;;0.47;100.00
71791;BME280;59638;52.126;5.434;2024-01-15T09:27:40;100205.41;;;0.50;100.00
71791;BME280;59638;52.126;5.434;2024-01-15T09:30:07;100208.22;;;0.47;100.00
71791;BME280;59638;52.126;5.434;2024-01-15T09:32:35;100206.50;;;0.46;100.00
71791;BME280;59638;52.126;5.434;2024-01-15T09:35:01;100213.56;;;0.44;100.00
71791;BME280;59638;52.126;5.434;2024-01-15T09:37:28;100215.44;;;0.42;100.00
71791;BME280;59638;52.126;5.434;2024-01-15T09:40:12;100213.69;;;0.57;100.00
71791;BME280;59638;52.126;5.434;2024-01-15T09:42:41;100209.16;;;0.60;100.00
71791;BME280;59638;52.126;5.434;2024-01-15T09:45:09;100205.28;;;1.24;100.00
71791;BME280;59638;52.126;5.434;2024-01-15T09:47:37;100203.81;;;2.03;100.00
71791;BME280;59638;52.126;5.434;2024-01-15T09:50:09;100195.50;;;1.83;100.00
71791;BME280;59638;52.126;5.434;2024-01-15T09:52:36;100200.66;;;1.29;100.00
71791;BME280;59638;52.126;5.434;2024-01-15T09:55:03;100205.09;;;0.99;100.00
71791;BME280;59638;52.126;5.434;2024-01-15T09:57:32;100208.53;;;0.85;100.00
71791;BME280;59638;52.126;5.434;2024-01-15T09:59:59;100209.91;;;0.76;100.00
71791;BME280;59638;52.126;5.434;2024-01-15T10:02:27;100214.75;;;0.68;100.00
71791;BME280;59638;52.126;5.434;2024-01-15T10:04:54;100219.19;;;0.66;100.00
71791;BME280;59638;52.126;5.434;2024-01-15T10:07:21;100220.56;;;0.72;100.00
71791;BME280;59638;52.126;5.434;2024-01-15T10:09:48;100216.44;;;1.12;100.00
71791;BME280;59638;52.126;5.434;2024-01-15T10:12:15;100229.38;;;2.63;100.00
71791;BME280;59638;52.126;5.434;2024-01-15T10:14:41;100225.88;;;3.02;100.00
71791;BME280;59638;52.126;5.434;2024-01-15T10:17:13;100203.81;;;2.03;100.00
71791;BME280;59638;52.126;5.434;2024-01-15T10:19:47;100209.66;;;1.52;100.00
71791;BME280;59638;52.126;5.434;2024-01-15T10:22:16;100209.94;;;1.33;100.00
71791;BME280;59638;52.126;5.434;2024-01-15T10:24:44;100210.38;;;1.54;100.00
71791;BME280;59638;52.126;5.434;2024-01-15T10:27:14;100224.78;;;2.54;100.00
71791;BME280;59638;52.126;5.434;2024-01-15T10:29:41;100226.56;;;2.13;100.00
71791;BME280;59638;52.126;5.434;2024-01-15T10:32:09;100230.44;;;1.52;100.00
71791;BME280;59638;52.126;5.434;2024-01-15T10:34:39;100215.91;;;1.07;100.00
71791;BME280;59638;52.126;5.434;2024-01-15T10:37:08;100212.41;;;0.78;100.00
71791;BME280;59638;52.126;5.434;2024-01-15T10:39:34;100228.25;;;0.59;100.00
71791;BME280;59638;52.126;5.434;2024-01-15T10:42:01;100217.47;;;0.51;100.00
71791;BME280;59638;52.126;5.434;2024-01-15T10:44:28;100212.19;;;0.52;100.00
71791;BME280;59638;52.126;5.434;2024-01-15T10:46:56;100221.25;;;0.90;100.00
71791;BME280;59638;52.126;5.434;2024-01-15T10:49:24;100220.75;;;2.75;100.00
71791;BME280;59638;52.126;5.434;2024-01-15T10:51:58;100215.44;;;3.15;100.00
71791;BME280;59638;52.126;5.434;2024-01-15T10:54:27;100218.41;;;2.32;100.00
71791;BME280;59638;52.126;5.434;2024-01-15T10:56:55;100219.38;;;2.17;100.00
71791;BME280;59638;52.126;5.434;2024-01-15T10:59:23;100227.63;;;2.76;100.00
71791;BME280;59638;52.126;5.434;2024-01-15T11:01:50;100235.03;;;2.82;100.00
71791;BME280;59638;52.126;5.434;2024-01-15T11:04:21;100236.63;;;2.32;100.00
71791;BME280;59638;52.126;5.434;2024-01-15T11:06:52;100241.16;;;2.16;100.00
71791;BME280;59638;52.126;5.434;2024-01-15T11:09:23;100248.16;;;2.01;100.00
71791;BME280;59638;52.126;5.434;2024-01-15T11:11:54;100241.63;;;1.81;100.00
71791;BME280;59638;52.126;5.434;2024-01-15T11:14:45;100250.19;;;1.69;100.00
71791;BME280;59638;52.126;5.434;2024-01-15T11:17:12;100252.00;;;1.54;100.00
71791;BME280;59638;52.126;5.434;2024-01-15T11:19:44;100252.25;;;1.50;100.00
71791;BME280;59638;52.126;5.434;2024-01-15T11:24:57;100256.53;;;1.51;100.00
71791;BME280;59638;52.126;5.434;2024-01-15T11:30:08;100258.31;;;1.50;100.00
71791;BME280;59638;52.126;5.434;2024-01-15T11:32:35;100245.75;;;1.57;100.00
71791;BME280;59638;52.126;5.434;2024-01-15T11:35:03;100244.56;;;1.89;100.00
71791;BME280;59638;52.126;5.434;2024-01-15T11:40:20;100237.91;;;3.54;100.00
71791;BME280;59638;52.126;5.434;2024-01-15T11:42:48;100247.97;;;2.96;100.00
71791;BME280;59638;52.126;5.434;2024-01-15T11:45:18;100246.44;;;2.41;100.00
71791;BME280;59638;52.126;5.434;2024-01-15T11:48:09;100256.53;;;2.98;100.00
71791;BME280;59638;52.126;5.434;2024-01-15T11:50:46;100249.63;;;3.10;100.00
71791;BME280;59638;52.126;5.434;2024-01-15T11:53:26;100264.00;;;2.65;100.00
71791;BME280;59638;52.126;5.434;2024-01-15T11:55:58;100270.56;;;2.58;100.00
71791;BME280;59638;52.126;5.434;2024-01-15T11:58:25;100261.88;;;2.57;100.00
71791;BME280;59638;52.126;5.434;2024-01-15T12:00:52;100250.19;;;2.50;100.00
71791;BME280;59638;52.126;5.434;2024-01-15T12:03:23;100248.59;;;2.75;100.00
71791;BME280;59638;52.126;5.434;2024-01-15T12:05:51;100243.81;;;3.32;100.00
71791;BME280;59638;52.126;5.434;2024-01-15T12:08:24;100234.91;;;4.32;100.00
71791;BME280;59638;52.126;5.434;2024-01-15T12:10:52;100260.44;;;4.28;100.00
71791;BME280;59638;52.126;5.434;2024-01-15T12:13:20;100270.88;;;3.68;100.00
71791;BME280;59638;52.126;5.434;2024-01-15T12:15:47;100280.94;;;2.97;100.00
71791;BME280;59638;52.126;5.434;2024-01-15T12:18:16;100279.59;;;2.52;100.00
71791;BME280;59638;52.126;5.434;2024-01-15T12:20:45;100287.28;;;2.14;100.00
71791;BME280;59638;52.126;5.434;2024-01-15T12:23:15;100297.22;;;1.80;100.00
71791;BME280;59638;52.126;5.434;2024-01-15T12:25:44;100301.66;;;1.64;100.00
71791;BME280;59638;52.126;5.434;2024-01-15T12:28:10;100301.13;;;1.45;100.00
71791;BME280;59638;52.126;5.434;2024-01-15T12:30:37;100302.06;;;1.44;100.00
71791;BME280;59638;52.126;5.434;2024-01-15T12:33:05;100299.34;;;1.45;100.00
71791;BME280;59638;52.126;5.434;2024-01-15T12:35:33;100291.84;;;1.55;100.00
71791;BME280;59638;52.126;5.434;2024-01-15T12:38:01;100308.94;;;1.59;100.00
71791;BME280;59638;52.126;5.434;2024-01-15T12:40:30;100319.34;;;1.59;100.00
71791;BME280;59638;52.126;5.434;2024-01-15T12:42:58;100312.81;;;1.52;100.00
71791;BME280;59638;52.126;5.434;2024-01-15T12:45:25;100317.09;;;1.39;100.00
71791;BME280;59638;52.126;5.434;2024-01-15T12:47:52;100316.53;;;1.19;100.00
71791;BME280;59638;52.126;5.434;2024-01-15T12:50:19;100308.78;;;1.03;100.00
71791;BME280;59638;52.126;5.434;2024-01-15T12:52:47;100302.47;;;0.93;100.00
71791;BME280;59638;52.126;5.434;2024-01-15T12:55:14;100314.63;;;0.93;100.00
71791;BME280;59638;52.126;5.434;2024-01-15T12:57:40;100313.34;;;1.00;100.00